Aérodrome :
LOGIN :

S'inscrire | Disclaimer

   EN    FR    IT 

 










Légende :    VFR   VFR Marginal   IFR   IFR Intensif   IFR Très Intensif
Visi : 
Plafond : 
>= 8 km
>= 3000ft
5 à 8 km
1000 à 3000 ft
1500m à 5 km
500 à 1000 ft
800 à 1500m
200 à 500 ft
< 800m
< 200 ft
Symboles :   Orages  Brouillard  Fortes neiges  Fortes précipitations  Vent > 20 kt
SIGMETs :   Divers  Orages  Givrage  Turbulence  Onde Orograph.  Cendres Volcan.






- Altitude de l'aérodrome : 425 ft
- Code IATA : DTM


EDLW - Dortmund

DERNIER METAR :
  • 301650Z 06009KT CAVOK 28/13 Q1007

METARs EXPIRÉS :
  • 301620Z 04008KT 010V080 CAVOK 29/14 Q1007
  • 301550Z 08007KT 010V120 CAVOK 29/14 Q1008
  • 301520Z 07007KT 040V100 CAVOK 30/14 Q1008
  • 301450Z 05006KT 350V110 CAVOK 30/14 Q1009

TAF TAF EDLW
Valide du 30 à 12h jusqu'au 01 à 12h UTC


301100Z 3012/0112 VRB03KT CAVOK
BECMG 3016/3019 26006KT
PROB40
TEMPO 3017/3023 24015G30KT SHRA BKN020CB
PROB30
TEMPO 3017/3021 23025G45KT 2500 +TSRA BKN012CB
BECMG 3021/3024 BKN012
PROB30
TEMPO 3023/0104 4000 RA BR BKN007
BECMG 0104/0107 SCT015 BKN030



MET'MAP, la Météo Aéronautique d'un coup d'oeil ! - Copyright ORBIFLY Décembre 2007 - Disclaimer

ORBIFLY MET'MAP TEAM :

Programmation & Développement : Alexandra Zaïnal
Sur une idée originale de : Baudouin d'Aumeries
Soutien technique & logistique : Manuel Goepfert
Assistance : Marc-Olivier Méhu




SOURCES & CREDITS :

   NOAA